Bannock, OH (43972)

10:44 PM EDT on August 23, 2016 (GMT -0400)
Morristown, Ohio | | Change Station

Elev 1283 ft 40.08 °N, 81.06 °W | Updated 7 minutes ago

Clear
Clear
69.4 °F
Feels Like 69.4 °F
N
0.0
Wind Variable Wind from ESE

Today
High -- | Low -- °F
--% Chance of Precip.
Yesterday
High -- | Low -- °F
Precip. -- in
Pressure 30.26 in
Visibility 10.0 miles
Clouds Clear
Dew Point 62 °F
Humidity 77%
Rainfall 0.00 in
Snow Depth Not available.
6:43 AM 8:08 PM
Waning Gibbous, 62% visible
METAR KHLG 240153Z 00000KT 10SM CLR 21/15 A3027 RMK AO2 SLP247 T02110150
Pressure 30.26 in
Visibility 10.0 miles
Clouds Clear
Dew Point 62 °F
Humidity 77%
Rainfall 0.00 in
Snow Depth Not available.
6:43 AM 8:08 PM
Waning Gibbous, 62% visible
METAR KHLG 240153Z 00000KT 10SM CLR 21/15 A3027 RMK AO2 SLP247 T02110150

10-Day Weather Forecast

Almanac

Astronomy

Aug. 23, 2016 Rise Set
Actual Time
Civil Twilight
Nautical Twilight
Astronomical Twilight
Moon
Length of Visible Light
Length of Day
Tomorrow will be .
, % of the Moon is Illuminated

Today's Extremes

State Highs State Lows

Community

WunderPhotos

Upload Photos

1,934,533 photos uploaded!

WunderBlog® & News

Nearby

Air Quality

  Air Quality AQ Index Pollutant
Not available.

Snow Depth

Station Depth Elevation

Earthquake Activity

City Distance Mag. Time & Date
Minimum magnitude displayed is 2.5.

Coastal Water Temperatures

Place Temperature

Stations

Nearby Weather Stations

Station Location Temp. Windchill Dew Point Humidity Wind Precip. Elev Updated Type
                   

Watches & Warnings

There are currently no watches in effect.